sensor_id;sensor_type;location;lat;lon;timestamp;temperature;humidity
11214;DHT22;5664;48.606;13.456;2024-03-25T00:01:40;17.60;86.20
11214;DHT22;5664;48.606;13.456;2024-03-25T00:04:06;17.90;86.50
11214;DHT22;5664;48.606;13.456;2024-03-25T00:06:31;17.90;86.80
11214;DHT22;5664;48.606;13.456;2024-03-25T00:09:02;17.90;86.50
11214;DHT22;5664;48.606;13.456;2024-03-25T00:11:27;17.50;85.50
11214;DHT22;5664;48.606;13.456;2024-03-25T00:13:53;17.60;86.30
11214;DHT22;5664;48.606;13.456;2024-03-25T00:16:18;17.50;86.30
11214;DHT22;5664;48.606;13.456;2024-03-25T00:18:43;17.70;86.30
11214;DHT22;5664;48.606;13.456;2024-03-25T00:21:09;17.50;86.40
11214;DHT22;5664;48.606;13.456;2024-03-25T00:23:34;17.50;86.40
11214;DHT22;5664;48.606;13.456;2024-03-25T00:26:00;17.60;86.40
11214;DHT22;5664;48.606;13.456;2024-03-25T00:28:25;17.60;86.40
11214;DHT22;5664;48.606;13.456;2024-03-25T00:30:51;17.50;86.40
11214;DHT22;5664;48.606;13.456;2024-03-25T00:33:16;17.50;86.50
11214;DHT22;5664;48.606;13.456;2024-03-25T00:35:42;17.50;86.50
11214;DHT22;5664;48.606;13.456;2024-03-25T00:38:08;17.50;86.50
11214;DHT22;5664;48.606;13.456;2024-03-25T00:40:33;17.40;86.60
11214;DHT22;5664;48.606;13.456;2024-03-25T00:42:59;17.50;86.80
11214;DHT22;5664;48.606;13.456;2024-03-25T00:45:25;17.40;86.40
11214;DHT22;5664;48.606;13.456;2024-03-25T00:47:58;17.40;86.70
11214;DHT22;5664;48.606;13.456;2024-03-25T00:50:25;17.20;85.70
11214;DHT22;5664;48.606;13.456;2024-03-25T00:52:50;17.60;86.60
11214;DHT22;5664;48.606;13.456;2024-03-25T00:55:16;17.30;86.70
11214;DHT22;5664;48.606;13.456;2024-03-25T00:57:41;17.30;86.70
11214;DHT22;5664;48.606;13.456;2024-03-25T01:00:07;17.50;86.80
11214;DHT22;5664;48.606;13.456;2024-03-25T01:02:33;17.20;86.50
11214;DHT22;5664;48.606;13.456;2024-03-25T01:04:58;17.50;86.70
11214;DHT22;5664;48.606;13.456;2024-03-25T01:07:25;17.30;86.80
11214;DHT22;5664;48.606;13.456;2024-03-25T01:09:50;17.60;86.90
11214;DHT22;5664;48.606;13.456;2024-03-25T01:12:16;17.50;87.00
11214;DHT22;5664;48.606;13.456;2024-03-25T01:14:41;17.20;86.90
11214;DHT22;5664;48.606;13.456;2024-03-25T01:17:07;17.30;87.00
11214;DHT22;5664;48.606;13.456;2024-03-25T01:19:32;17.20;86.70
11214;DHT22;5664;48.606;13.456;2024-03-25T01:21:58;17.20;86.70
11214;DHT22;5664;48.606;13.456;2024-03-25T01:24:24;17.30;86.70
11214;DHT22;5664;48.606;13.456;2024-03-25T01:26:50;17.50;86.90
11214;DHT22;5664;48.606;13.456;2024-03-25T01:29:16;17.40;86.70
11214;DHT22;5664;48.606;13.456;2024-03-25T01:31:42;17.10;86.80
11214;DHT22;5664;48.606;13.456;2024-03-25T01:34:07;17.20;86.70
11214;DHT22;5664;48.606;13.456;2024-03-25T01:36:33;17.10;86.70
11214;DHT22;5664;48.606;13.456;2024-03-25T01:38:59;17.10;86.60
11214;DHT22;5664;48.606;13.456;2024-03-25T01:41:25;17.00;86.40
11214;DHT22;5664;48.606;13.456;2024-03-25T01:43:50;17.30;86.60
11214;DHT22;5664;48.606;13.456;2024-03-25T01:46:19;17.20;86.50
11214;DHT22;5664;48.606;13.456;2024-03-25T01:48:46;16.90;85.60
11214;DHT22;5664;48.606;13.456;2024-03-25T01:51:14;16.90;86.40
11214;DHT22;5664;48.606;13.456;2024-03-25T01:53:40;16.90;86.30
11214;DHT22;5664;48.606;13.456;2024-03-25T01:56:06;17.00;86.40
11214;DHT22;5664;48.606;13.456;2024-03-25T01:58:32;16.90;86.40
11214;DHT22;5664;48.606;13.456;2024-03-25T02:00:58;16.90;86.70
11214;DHT22;5664;48.606;13.456;2024-03-25T02:03:26;17.60;86.90
11214;DHT22;5664;48.606;13.456;2024-03-25T02:05:55;17.20;86.70
11214;DHT22;5664;48.606;13.456;2024-03-25T02:08:21;17.20;86.60
11214;DHT22;5664;48.606;13.456;2024-03-25T02:10:47;17.00;86.60
11214;DHT22;5664;48.606;13.456;2024-03-25T02:13:14;16.90;86.60
11214;DHT22;5664;48.606;13.456;2024-03-25T02:15:40;17.00;86.60
11214;DHT22;5664;48.606;13.456;2024-03-25T02:18:06;17.60;86.80
11214;DHT22;5664;48.606;13.456;2024-03-25T02:20:31;16.80;86.70
11214;DHT22;5664;48.606;13.456;2024-03-25T02:22:57;16.90;87.10
11214;DHT22;5664;48.606;13.456;2024-03-25T02:25:22;17.30;87.00
11214;DHT22;5664;48.606;13.456;2024-03-25T02:27:48;16.70;86.70
11214;DHT22;5664;48.606;13.456;2024-03-25T02:30:13;16.60;85.70
11214;DHT22;5664;48.606;13.456;2024-03-25T02:32:39;16.70;86.80
11214;DHT22;5664;48.606;13.456;2024-03-25T02:35:06;16.60;85.60
11214;DHT22;5664;48.606;13.456;2024-03-25T02:37:32;16.70;86.40
11214;DHT22;5664;48.606;13.456;2024-03-25T02:39:58;16.70;86.70
11214;DHT22;5664;48.606;13.456;2024-03-25T02:42:24;17.00;86.70
11214;DHT22;5664;48.606;13.456;2024-03-25T02:44:52;16.90;90.30
11214;DHT22;5664;48.606;13.456;2024-03-25T02:47:17;16.70;86.70
11214;DHT22;5664;48.606;13.456;2024-03-25T02:49:44;16.70;87.00
11214;DHT22;5664;48.606;13.456;2024-03-25T02:52:10;16.70;87.10
11214;DHT22;5664;48.606;13.456;2024-03-25T02:54:35;16.70;87.30
11214;DHT22;5664;48.606;13.456;2024-03-25T02:57:01;16.70;87.30
11214;DHT22;5664;48.606;13.456;2024-03-25T02:59:26;16.90;87.50
11214;DHT22;5664;48.606;13.456;2024-03-25T03:01:52;16.70;87.40
11214;DHT22;5664;48.606;13.456;2024-03-25T03:04:17;17.00;87.50
11214;DHT22;5664;48.606;13.456;2024-03-25T03:06:42;16.80;87.30
11214;DHT22;5664;48.606;13.456;2024-03-25T03:09:08;16.60;87.00
11214;DHT22;5664;48.606;13.456;2024-03-25T03:11:33;17.60;87.80
11214;DHT22;5664;48.606;13.456;2024-03-25T03:13:59;16.60;87.40
11214;DHT22;5664;48.606;13.456;2024-03-25T03:16:24;17.10;87.60
11214;DHT22;5664;48.606;13.456;2024-03-25T03:18:50;16.90;87.50
11214;DHT22;5664;48.606;13.456;2024-03-25T03:21:15;16.60;87.20
11214;DHT22;5664;48.606;13.456;2024-03-25T03:23:41;16.50;87.50
11214;DHT22;5664;48.606;13.456;2024-03-25T03:26:06;16.60;87.40
11214;DHT22;5664;48.606;13.456;2024-03-25T03:28:32;16.50;87.40
11214;DHT22;5664;48.606;13.456;2024-03-25T03:30:58;16.60;87.20
11214;DHT22;5664;48.606;13.456;2024-03-25T03:33:23;16.60;87.20
11214;DHT22;5664;48.606;13.456;2024-03-25T03:35:49;16.90;87.40
11214;DHT22;5664;48.606;13.456;2024-03-25T03:38:14;16.60;87.20
11214;DHT22;5664;48.606;13.456;2024-03-25T03:40:40;16.70;87.20
11214;DHT22;5664;48.606;13.456;2024-03-25T03:43:05;16.70;87.30
11214;DHT22;5664;48.606;13.456;2024-03-25T03:45:32;16.70;87.40
11214;DHT22;5664;48.606;13.456;2024-03-25T03:47:58;16.60;87.30
11214;DHT22;5664;48.606;13.456;2024-03-25T03:50:24;16.60;87.50
11214;DHT22;5664;48.606;13.456;2024-03-25T03:52:49;16.60;88.20
11214;DHT22;5664;48.606;13.456;2024-03-25T03:55:14;16.40;87.50
11214;DHT22;5664;48.606;13.456;2024-03-25T03:57:40;16.30;87.30
11214;DHT22;5664;48.606;13.456;2024-03-25T04:00:08;16.50;87.60
11214;DHT22;5664;48.606;13.456;2024-03-25T04:02:34;16.20;87.00
11214;DHT22;5664;48.606;13.456;2024-03-25T04:04:59;16.30;87.40
11214;DHT22;5664;48.606;13.456;2024-03-25T04:07:25;16.40;87.50
11214;DHT22;5664;48.606;13.456;2024-03-25T04:09:54;16.50;87.40
11214;DHT22;5664;48.606;13.456;2024-03-25T04:12:19;16.30;90.50
11214;DHT22;5664;48.606;13.456;2024-03-25T04:14:48;16.60;87.40
11214;DHT22;5664;48.606;13.456;2024-03-25T04:17:14;16.20;86.30
11214;DHT22;5664;48.606;13.456;2024-03-25T04:19:40;16.30;87.30
11214;DHT22;5664;48.606;13.456;2024-03-25T04:22:05;16.40;87.50
11214;DHT22;5664;48.606;13.456;2024-03-25T04:24:32;17.30;88.10
11214;DHT22;5664;48.606;13.456;2024-03-25T04:26:59;16.40;87.40
11214;DHT22;5664;48.606;13.456;2024-03-25T04:29:25;16.30;87.40
11214;DHT22;5664;48.606;13.456;2024-03-25T04:31:50;16.40;87.50
11214;DHT22;5664;48.606;13.456;2024-03-25T04:34:16;16.70;87.80
11214;DHT22;5664;48.606;13.456;2024-03-25T04:36:41;16.20;87.50
11214;DHT22;5664;48.606;13.456;2024-03-25T04:39:07;17.00;87.90
11214;DHT22;5664;48.606;13.456;2024-03-25T04:41:33;16.30;87.70
11214;DHT22;5664;48.606;13.456;2024-03-25T04:43:59;16.90;88.10
11214;DHT22;5664;48.606;13.456;2024-03-25T04:46:24;16.50;87.60
11214;DHT22;5664;48.606;13.456;2024-03-25T04:48:49;16.70;87.80
11214;DHT22;5664;48.606;13.456;2024-03-25T04:51:15;16.40;87.80
11214;DHT22;5664;48.606;13.456;2024-03-25T04:53:40;16.30;87.50
11214;DHT22;5664;48.606;13.456;2024-03-25T04:56:06;16.20;87.50
11214;DHT22;5664;48.606;13.456;2024-03-25T04:58:32;16.40;87.80
11214;DHT22;5664;48.606;13.456;2024-03-25T05:00:57;16.20;87.50
11214;DHT22;5664;48.606;13.456;2024-03-25T05:03:22;16.50;87.80
11214;DHT22;5664;48.606;13.456;2024-03-25T05:05:48;16.30;87.60
11214;DHT22;5664;48.606;13.456;2024-03-25T05:08:13;16.10;87.60
11214;DHT22;5664;48.606;13.456;2024-03-25T05:10:39;16.40;87.90
11214;DHT22;5664;48.606;13.456;2024-03-25T05:13:04;16.60;87.80
11214;DHT22;5664;48.606;13.456;2024-03-25T05:15:30;16.20;87.70
11214;DHT22;5664;48.606;13.456;2024-03-25T05:17:56;16.40;87.60
11214;DHT22;5664;48.606;13.456;2024-03-25T05:20:21;16.30;87.60
11214;DHT22;5664;48.606;13.456;2024-03-25T05:22:47;15.90;87.50
11214;DHT22;5664;48.606;13.456;2024-03-25T05:25:12;16.40;87.80
11214;DHT22;5664;48.606;13.456;2024-03-25T05:27:38;16.10;87.60
11214;DHT22;5664;48.606;13.456;2024-03-25T05:30:03;17.00;88.30
11214;DHT22;5664;48.606;13.456;2024-03-25T05:32:29;15.90;87.70
11214;DHT22;5664;48.606;13.456;2024-03-25T05:34:54;15.90;88.00
11214;DHT22;5664;48.606;13.456;2024-03-25T05:37:19;15.90;87.80
11214;DHT22;5664;48.606;13.456;2024-03-25T05:39:45;16.60;88.30
11214;DHT22;5664;48.606;13.456;2024-03-25T05:42:11;16.10;88.10
11214;DHT22;5664;48.606;13.456;2024-03-25T05:44:36;16.00;88.10
11214;DHT22;5664;48.606;13.456;2024-03-25T05:47:02;15.90;87.90
11214;DHT22;5664;48.606;13.456;2024-03-25T05:49:27;15.80;87.90
11214;DHT22;5664;48.606;13.456;2024-03-25T05:51:53;16.30;88.20
11214;DHT22;5664;48.606;13.456;2024-03-25T05:54:18;16.70;88.40
11214;DHT22;5664;48.606;13.456;2024-03-25T05:56:44;15.90;88.00
11214;DHT22;5664;48.606;13.456;2024-03-25T05:59:09;16.00;87.90
11214;DHT22;5664;48.606;13.456;2024-03-25T06:01:35;16.10;88.20
11214;DHT22;5664;48.606;13.456;2024-03-25T06:04:03;16.20;88.40
11214;DHT22;5664;48.606;13.456;2024-03-25T06:06:28;15.80;87.80
11214;DHT22;5664;48.606;13.456;2024-03-25T06:08:54;16.10;88.10
11214;DHT22;5664;48.606;13.456;2024-03-25T06:11:19;15.80;90.90
11214;DHT22;5664;48.606;13.456;2024-03-25T06:13:47;16.00;88.20
11214;DHT22;5664;48.606;13.456;2024-03-25T06:16:13;15.80;87.00
11214;DHT22;5664;48.606;13.456;2024-03-25T06:18:39;16.10;88.40
11214;DHT22;5664;48.606;13.456;2024-03-25T06:21:05;15.70;87.90
11214;DHT22;5664;48.606;13.456;2024-03-25T06:23:31;16.40;88.40
11214;DHT22;5664;48.606;13.456;2024-03-25T06:25:56;15.90;88.10
11214;DHT22;5664;48.606;13.456;2024-03-25T06:28:22;16.10;88.20
11214;DHT22;5664;48.606;13.456;2024-03-25T06:30:48;15.90;87.90
11214;DHT22;5664;48.606;13.456;2024-03-25T06:33:31;16.80;88.50
11214;DHT22;5664;48.606;13.456;2024-03-25T06:36:16;16.20;87.80
11214;DHT22;5664;48.606;13.456;2024-03-25T06:38:43;16.30;88.90
11214;DHT22;5664;48.606;13.456;2024-03-25T06:41:08;15.80;88.10
11214;DHT22;5664;48.606;13.456;2024-03-25T06:43:34;15.90;88.10
11214;DHT22;5664;48.606;13.456;2024-03-25T06:46:00;15.80;88.20
11214;DHT22;5664;48.606;13.456;2024-03-25T06:48:25;15.50;86.90
11214;DHT22;5664;48.606;13.456;2024-03-25T06:50:54;16.00;88.20
11214;DHT22;5664;48.606;13.456;2024-03-25T06:53:20;15.70;87.00
11214;DHT22;5664;48.606;13.456;2024-03-25T06:55:55;15.60;88.10
11214;DHT22;5664;48.606;13.456;2024-03-25T06:58:21;15.70;87.20
11214;DHT22;5664;48.606;13.456;2024-03-25T07:00:47;16.40;88.50
11214;DHT22;5664;48.606;13.456;2024-03-25T07:03:14;16.40;88.60
11214;DHT22;5664;48.606;13.456;2024-03-25T07:05:39;16.00;88.10
11214;DHT22;5664;48.606;13.456;2024-03-25T07:08:05;15.60;87.10
11214;DHT22;5664;48.606;13.456;2024-03-25T07:10:30;15.60;86.90
11214;DHT22;5664;48.606;13.456;2024-03-25T07:12:56;15.80;88.00
11214;DHT22;5664;48.606;13.456;2024-03-25T07:15:21;16.10;88.30
11214;DHT22;5664;48.606;13.456;2024-03-25T07:17:47;16.50;88.60
11214;DHT22;5664;48.606;13.456;2024-03-25T07:20:12;15.70;87.90
11214;DHT22;5664;48.606;13.456;2024-03-25T07:22:38;15.70;88.00
11214;DHT22;5664;48.606;13.456;2024-03-25T07:25:03;15.90;88.20
11214;DHT22;5664;48.606;13.456;2024-03-25T07:27:29;15.70;88.10
11214;DHT22;5664;48.606;13.456;2024-03-25T07:29:54;16.40;88.80
11214;DHT22;5664;48.606;13.456;2024-03-25T07:32:20;15.80;88.20
11214;DHT22;5664;48.606;13.456;2024-03-25T07:34:45;15.80;88.20
11214;DHT22;5664;48.606;13.456;2024-03-25T07:37:11;16.10;88.50
11214;DHT22;5664;48.606;13.456;2024-03-25T07:39:36;16.00;88.50
11214;DHT22;5664;48.606;13.456;2024-03-25T07:42:02;16.10;88.50
11214;DHT22;5664;48.606;13.456;2024-03-25T07:44:28;15.70;88.30
11214;DHT22;5664;48.606;13.456;2024-03-25T07:46:53;16.10;88.50
11214;DHT22;5664;48.606;13.456;2024-03-25T07:49:18;16.30;88.70
11214;DHT22;5664;48.606;13.456;2024-03-25T07:51:44;16.00;88.70
11214;DHT22;5664;48.606;13.456;2024-03-25T07:54:10;16.00;88.50
11214;DHT22;5664;48.606;13.456;2024-03-25T07:56:37;16.00;88.80
11214;DHT22;5664;48.606;13.456;2024-03-25T07:59:03;15.70;88.60
11214;DHT22;5664;48.606;13.456;2024-03-25T08:01:29;16.30;88.90
11214;DHT22;5664;48.606;13.456;2024-03-25T08:03:54;16.20;88.80
11214;DHT22;5664;48.606;13.456;2024-03-25T08:06:20;16.10;88.70
11214;DHT22;5664;48.606;13.456;2024-03-25T08:08:46;15.90;88.60
11214;DHT22;5664;48.606;13.456;2024-03-25T08:11:12;16.00;88.80
11214;DHT22;5664;48.606;13.456;2024-03-25T08:13:37;16.20;88.90
11214;DHT22;5664;48.606;13.456;2024-03-25T08:16:03;16.10;88.70
11214;DHT22;5664;48.606;13.456;2024-03-25T08:18:28;15.80;88.40
11214;DHT22;5664;48.606;13.456;2024-03-25T08:20:54;16.10;88.90
11214;DHT22;5664;48.606;13.456;2024-03-25T08:23:19;16.20;89.10
11214;DHT22;5664;48.606;13.456;2024-03-25T08:25:45;16.10;88.90
11214;DHT22;5664;48.606;13.456;2024-03-25T08:28:10;16.10;89.00
11214;DHT22;5664;48.606;13.456;2024-03-25T08:30:36;16.20;89.20
11214;DHT22;5664;48.606;13.456;2024-03-25T08:33:01;16.90;89.70
11214;DHT22;5664;48.606;13.456;2024-03-25T08:35:27;16.00;89.50
11214;DHT22;5664;48.606;13.456;2024-03-25T08:37:52;16.00;89.30
11214;DHT22;5664;48.606;13.456;2024-03-25T08:40:18;16.20;89.60
11214;DHT22;5664;48.606;13.456;2024-03-25T08:42:43;16.20;89.90
11214;DHT22;5664;48.606;13.456;2024-03-25T08:45:09;16.50;90.10
11214;DHT22;5664;48.606;13.456;2024-03-25T08:47:35;16.20;90.40
11214;DHT22;5664;48.606;13.456;2024-03-25T08:50:01;16.50;91.10
11214;DHT22;5664;48.606;13.456;2024-03-25T08:52:26;16.70;91.50
11214;DHT22;5664;48.606;13.456;2024-03-25T08:54:52;16.40;91.70
11214;DHT22;5664;48.606;13.456;2024-03-25T08:57:17;16.50;91.90
11214;DHT22;5664;48.606;13.456;2024-03-25T08:59:43;17.00;92.30
11214;DHT22;5664;48.606;13.456;2024-03-25T09:02:08;17.20;92.00
11214;DHT22;5664;48.606;13.456;2024-03-25T09:04:33;16.50;91.80
11214;DHT22;5664;48.606;13.456;2024-03-25T09:06:59;16.70;91.80
11214;DHT22;5664;48.606;13.456;2024-03-25T09:09:24;16.80;91.80
11214;DHT22;5664;48.606;13.456;2024-03-25T09:12:09;16.90;91.50
11214;DHT22;5664;48.606;13.456;2024-03-25T09:14:34;16.90;91.90
11214;DHT22;5664;48.606;13.456;2024-03-25T09:17:00;16.90;91.70
11214;DHT22;5664;48.606;13.456;2024-03-25T09:19:25;17.00;91.70
11214;DHT22;5664;48.606;13.456;2024-03-25T09:21:51;17.10;91.70
11214;DHT22;5664;48.606;13.456;2024-03-25T09:24:16;17.40;91.70
11214;DHT22;5664;48.606;13.456;2024-03-25T09:26:43;17.50;91.70
11214;DHT22;5664;48.606;13.456;2024-03-25T09:29:08;17.40;91.50
11214;DHT22;5664;48.606;13.456;2024-03-25T09:31:33;17.30;91.50
11214;DHT22;5664;48.606;13.456;2024-03-25T09:33:59;17.40;91.20
11214;DHT22;5664;48.606;13.456;2024-03-25T09:36:24;17.30;91.20
11214;DHT22;5664;48.606;13.456;2024-03-25T09:38:50;17.50;91.20
11214;DHT22;5664;48.606;13.456;2024-03-25T09:41:18;18.00;91.30
11214;DHT22;5664;48.606;13.456;2024-03-25T09:43:44;17.70;91.30
11214;DHT22;5664;48.606;13.456;2024-03-25T09:46:11;17.70;91.00
11214;DHT22;5664;48.606;13.456;2024-03-25T09:48:36;17.80;91.10
11214;DHT22;5664;48.606;13.456;2024-03-25T09:51:02;17.90;91.00
11214;DHT22;5664;48.606;13.456;2024-03-25T09:53:28;17.70;90.80
11214;DHT22;5664;48.606;13.456;2024-03-25T09:55:54;17.90;90.90
11214;DHT22;5664;48.606;13.456;2024-03-25T09:58:20;18.20;92.60
11214;DHT22;5664;48.606;13.456;2024-03-25T10:00:46;17.90;90.90
11214;DHT22;5664;48.606;13.456;2024-03-25T10:03:11;18.10;90.90
11214;DHT22;5664;48.606;13.456;2024-03-25T10:05:38;18.10;90.80
11214;DHT22;5664;48.606;13.456;2024-03-25T10:08:04;18.10;90.70
11214;DHT22;5664;48.606;13.456;2024-03-25T10:10:30;18.00;90.60
11214;DHT22;5664;48.606;13.456;2024-03-25T10:12:56;18.20;90.70
11214;DHT22;5664;48.606;13.456;2024-03-25T10:15:21;18.10;91.10
11214;DHT22;5664;48.606;13.456;2024-03-25T10:17:49;18.40;90.70
11214;DHT22;5664;48.606;13.456;2024-03-25T10:20:14;18.40;90.60
11214;DHT22;5664;48.606;13.456;2024-03-25T10:22:40;18.40;90.60
11214;DHT22;5664;48.606;13.456;2024-03-25T10:25:06;18.50;90.60
11214;DHT22;5664;48.606;13.456;2024-03-25T10:27:33;18.20;90.70
11214;DHT22;5664;48.606;13.456;2024-03-25T10:29:58;18.30;90.60
11214;DHT22;5664;48.606;13.456;2024-03-25T10:32:24;18.50;90.70
11214;DHT22;5664;48.606;13.456;2024-03-25T10:34:54;18.50;90.30
11214;DHT22;5664;48.606;13.456;2024-03-25T10:37:19;18.40;92.40
11214;DHT22;5664;48.606;13.456;2024-03-25T10:39:47;18.60;90.60
11214;DHT22;5664;48.606;13.456;2024-03-25T10:42:13;18.70;90.60
11214;DHT22;5664;48.606;13.456;2024-03-25T10:44:39;18.80;90.70
11214;DHT22;5664;48.606;13.456;2024-03-25T10:47:05;18.80;90.60
11214;DHT22;5664;48.606;13.456;2024-03-25T10:49:33;18.60;90.50
11214;DHT22;5664;48.606;13.456;2024-03-25T10:52:00;18.70;90.60
11214;DHT22;5664;48.606;13.456;2024-03-25T10:54:26;18.70;90.60
11214;DHT22;5664;48.606;13.456;2024-03-25T10:56:55;18.90;90.50
11214;DHT22;5664;48.606;13.456;2024-03-25T10:59:21;18.80;90.50
11214;DHT22;5664;48.606;13.456;2024-03-25T11:01:48;19.20;90.60
11214;DHT22;5664;48.606;13.456;2024-03-25T11:04:13;18.70;89.80
11214;DHT22;5664;48.606;13.456;2024-03-25T11:06:39;18.90;90.30
11214;DHT22;5664;48.606;13.456;2024-03-25T11:09:05;19.10;90.40
11214;DHT22;5664;48.606;13.456;2024-03-25T11:11:33;19.00;90.20
11214;DHT22;5664;48.606;13.456;2024-03-25T11:14:02;19.00;89.60
11214;DHT22;5664;48.606;13.456;2024-03-25T11:16:31;19.30;90.00
11214;DHT22;5664;48.606;13.456;2024-03-25T11:19:02;19.10;89.30
11214;DHT22;5664;48.606;13.456;2024-03-25T11:21:28;19.10;89.10
11214;DHT22;5664;48.606;13.456;2024-03-25T11:23:53;19.10;88.50
11214;DHT22;5664;48.606;13.456;2024-03-25T11:26:20;19.30;91.20
11214;DHT22;5664;48.606;13.456;2024-03-25T11:28:45;19.50;89.20
11214;DHT22;5664;48.606;13.456;2024-03-25T11:31:11;19.50;89.20
11214;DHT22;5664;48.606;13.456;2024-03-25T11:33:40;19.70;89.40
11214;DHT22;5664;48.606;13.456;2024-03-25T11:36:05;19.70;88.80
11214;DHT22;5664;48.606;13.456;2024-03-25T11:38:31;19.80;89.70
11214;DHT22;5664;48.606;13.456;2024-03-25T11:40:56;20.00;89.90
11214;DHT22;5664;48.606;13.456;2024-03-25T11:43:22;19.80;77.20
11214;DHT22;5664;48.606;13.456;2024-03-25T11:45:48;19.90;65.90
11214;DHT22;5664;48.606;13.456;2024-03-25T11:48:14;19.30;61.60
11214;DHT22;5664;48.606;13.456;2024-03-25T11:50:40;19.40;60.00
11214;DHT22;5664;48.606;13.456;2024-03-25T11:53:05;18.90;59.80
11214;DHT22;5664;48.606;13.456;2024-03-25T11:55:31;18.90;59.70
11214;DHT22;5664;48.606;13.456;2024-03-25T11:57:56;18.60;59.70
11214;DHT22;5664;48.606;13.456;2024-03-25T12:00:23;18.40;60.30
11214;DHT22;5664;48.606;13.456;2024-03-25T12:02:49;18.40;60.90
11214;DHT22;5664;48.606;13.456;2024-03-25T12:05:14;18.30;66.20
11214;DHT22;5664;48.606;13.456;2024-03-25T12:07:40;18.50;70.40
11214;DHT22;5664;48.606;13.456;2024-03-25T12:10:05;18.80;73.20
11214;DHT22;5664;48.606;13.456;2024-03-25T12:12:50;18.70;73.30
11214;DHT22;5664;48.606;13.456;2024-03-25T12:15:18;19.00;74.00
11214;DHT22;5664;48.606;13.456;2024-03-25T12:17:43;19.20;75.20
11214;DHT22;5664;48.606;13.456;2024-03-25T12:20:09;19.40;75.80
11214;DHT22;5664;48.606;13.456;2024-03-25T12:22:36;19.40;76.20
11214;DHT22;5664;48.606;13.456;2024-03-25T12:25:02;19.50;76.70
11214;DHT22;5664;48.606;13.456;2024-03-25T12:27:29;19.60;76.70
11214;DHT22;5664;48.606;13.456;2024-03-25T12:29:58;19.90;77.30
11214;DHT22;5664;48.606;13.456;2024-03-25T12:32:57;19.90;77.00
11214;DHT22;5664;48.606;13.456;2024-03-25T12:35:16;19.90;77.50
11214;DHT22;5664;48.606;13.456;2024-03-25T12:37:42;20.20;78.60
11214;DHT22;5664;48.606;13.456;2024-03-25T12:40:09;20.30;78.70
11214;DHT22;5664;48.606;13.456;2024-03-25T12:42:36;20.10;78.70
11214;DHT22;5664;48.606;13.456;2024-03-25T12:45:01;20.40;78.90
11214;DHT22;5664;48.606;13.456;2024-03-25T12:47:28;20.20;78.90
11214;DHT22;5664;48.606;13.456;2024-03-25T12:49:54;20.40;79.00
11214;DHT22;5664;48.606;13.456;2024-03-25T12:52:19;20.50;79.30
11214;DHT22;5664;48.606;13.456;2024-03-25T12:54:45;20.50;79.40
11214;DHT22;5664;48.606;13.456;2024-03-25T12:57:11;20.80;79.60
11214;DHT22;5664;48.606;13.456;2024-03-25T12:59:37;20.80;79.30
11214;DHT22;5664;48.606;13.456;2024-03-25T13:02:06;20.70;78.70
11214;DHT22;5664;48.606;13.456;2024-03-25T13:04:34;21.00;78.80
11214;DHT22;5664;48.606;13.456;2024-03-25T13:07:02;20.90;78.80
11214;DHT22;5664;48.606;13.456;2024-03-25T13:09:28;21.10;78.50
11214;DHT22;5664;48.606;13.456;2024-03-25T13:11:55;22.60;79.20
11214;DHT22;5664;48.606;13.456;2024-03-25T13:14:21;21.20;78.00
11214;DHT22;5664;48.606;13.456;2024-03-25T13:16:47;21.40;78.00
11214;DHT22;5664;48.606;13.456;2024-03-25T13:19:13;21.40;77.20
11214;DHT22;5664;48.606;13.456;2024-03-25T13:21:38;21.30;76.90
11214;DHT22;5664;48.606;13.456;2024-03-25T13:24:04;21.60;76.90
11214;DHT22;5664;48.606;13.456;2024-03-25T13:26:29;21.50;76.30
11214;DHT22;5664;48.606;13.456;2024-03-25T13:28:55;21.60;75.60
11214;DHT22;5664;48.606;13.456;2024-03-25T13:31:20;21.70;75.30
11214;DHT22;5664;48.606;13.456;2024-03-25T13:33:45;21.70;74.90
11214;DHT22;5664;48.606;13.456;2024-03-25T13:36:11;21.80;74.80
11214;DHT22;5664;48.606;13.456;2024-03-25T13:38:36;21.60;74.80
11214;DHT22;5664;48.606;13.456;2024-03-25T13:41:02;21.70;74.90
11214;DHT22;5664;48.606;13.456;2024-03-25T13:43:28;21.70;74.70
11214;DHT22;5664;48.606;13.456;2024-03-25T13:45:53;21.90;75.10
11214;DHT22;5664;48.606;13.456;2024-03-25T13:48:19;21.90;79.00
11214;DHT22;5664;48.606;13.456;2024-03-25T13:50:44;21.90;75.40
11214;DHT22;5664;48.606;13.456;2024-03-25T13:53:10;22.10;75.50
11214;DHT22;5664;48.606;13.456;2024-03-25T13:55:36;22.00;75.50
11214;DHT22;5664;48.606;13.456;2024-03-25T13:58:01;22.20;75.40
11214;DHT22;5664;48.606;13.456;2024-03-25T14:00:27;22.10;75.60
11214;DHT22;5664;48.606;13.456;2024-03-25T14:02:53;22.20;75.30
11214;DHT22;5664;48.606;13.456;2024-03-25T14:05:20;22.20;78.80
11214;DHT22;5664;48.606;13.456;2024-03-25T14:07:45;22.30;75.50
11214;DHT22;5664;48.606;13.456;2024-03-25T14:10:11;22.40;75.30
11214;DHT22;5664;48.606;13.456;2024-03-25T14:12:36;22.40;75.30
11214;DHT22;5664;48.606;13.456;2024-03-25T14:15:02;22.70;75.40
11214;DHT22;5664;48.606;13.456;2024-03-25T14:17:28;22.60;75.40
11214;DHT22;5664;48.606;13.456;2024-03-25T14:19:53;22.70;75.30
11214;DHT22;5664;48.606;13.456;2024-03-25T14:22:20;22.80;78.90
11214;DHT22;5664;48.606;13.456;2024-03-25T14:24:46;22.90;75.20
11214;DHT22;5664;48.606;13.456;2024-03-25T14:27:12;23.00;75.30
11214;DHT22;5664;48.606;13.456;2024-03-25T14:29:37;23.00;74.80
11214;DHT22;5664;48.606;13.456;2024-03-25T14:32:03;23.10;74.50
11214;DHT22;5664;48.606;13.456;2024-03-25T14:34:28;23.10;74.80
11214;DHT22;5664;48.606;13.456;2024-03-25T14:36:54;23.20;74.80
11214;DHT22;5664;48.606;13.456;2024-03-25T14:39:19;23.20;75.00
11214;DHT22;5664;48.606;13.456;2024-03-25T14:41:45;23.20;74.70
11214;DHT22;5664;48.606;13.456;2024-03-25T14:44:10;23.30;74.80
11214;DHT22;5664;48.606;13.456;2024-03-25T14:46:36;23.30;74.90
11214;DHT22;5664;48.606;13.456;2024-03-25T14:49:01;23.40;74.70
11214;DHT22;5664;48.606;13.456;2024-03-25T14:51:27;23.50;74.50
11214;DHT22;5664;48.606;13.456;2024-03-25T14:53:52;23.60;74.30
11214;DHT22;5664;48.606;13.456;2024-03-25T14:56:17;23.60;74.30
11214;DHT22;5664;48.606;13.456;2024-03-25T14:58:43;23.70;74.10
11214;DHT22;5664;48.606;13.456;2024-03-25T15:01:10;23.80;73.80
11214;DHT22;5664;48.606;13.456;2024-03-25T15:03:35;23.80;73.70
11214;DHT22;5664;48.606;13.456;2024-03-25T15:06:01;23.80;73.60
11214;DHT22;5664;48.606;13.456;2024-03-25T15:08:30;23.80;73.30
11214;DHT22;5664;48.606;13.456;2024-03-25T15:10:56;23.90;73.20
11214;DHT22;5664;48.606;13.456;2024-03-25T15:13:21;24.00;73.90
11214;DHT22;5664;48.606;13.456;2024-03-25T15:15:47;24.10;73.40
11214;DHT22;5664;48.606;13.456;2024-03-25T15:18:13;24.10;73.10
11214;DHT22;5664;48.606;13.456;2024-03-25T15:20:39;24.10;73.20
11214;DHT22;5664;48.606;13.456;2024-03-25T15:23:04;24.20;73.00